Time;durP1;ratioP1;P1;durP2;ratioP2;P2;SDS_P1;SDS_P2;PMS_P1;PMS_P2;Temp;Humidity;BMP_temperature;BMP_pressure;BME280_temperature;BME280_humidity;BME280_pressure;Samples;Min_cycle;Max_cycle;Signal;HPM_P1;HPM_P2
2021/07/23 00:01:10;;;;;;;5.47;2.97;;;;;;;16.06;74.23;100423.56;1664135;84;21628;-71
2021/07/23 00:03:38;;;;;;;5.73;2.70;;;;;;;16.06;74.23;100423.56;1670058;85;21752;-70
2021/07/23 00:06:05;;;;;;;5.43;2.70;;;;;;;16.00;74.40;100421.49;1665847;85;21746;-71
2021/07/23 00:08:32;;;;;;;6.03;3.27;;;;;;;15.93;74.53;100430.51;1655299;85;21752;-71
2021/07/23 00:10:59;;;;;;;7.30;3.20;;;;;;;15.85;74.64;100427.13;1667499;84;21863;-70
2021/07/23 00:13:25;;;;;;;7.53;3.10;;;;;;;15.76;74.79;100428.38;1671426;84;21796;-71
2021/07/23 00:15:52;;;;;;;5.83;3.17;;;;;;;15.67;74.95;100431.48;1659006;84;22147;-70
2021/07/23 00:18:19;;;;;;;5.80;3.17;;;;;;;15.61;75.13;100437.45;1679151;84;21739;-70
2021/07/23 00:20:45;;;;;;;6.47;3.17;;;;;;;15.44;75.38;100428.55;1664437;84;21553;-71
2021/07/23 00:23:13;;;;;;;5.63;3.27;;;;;;;15.44;75.38;100428.55;1670229;84;21837;-70
2021/07/23 00:25:41;;;;;;;6.07;3.20;;;;;;;15.37;76.03;100432.17;1671598;84;21514;-70
2021/07/23 00:28:08;;;;;;;6.13;3.40;;;;;;;15.29;77.10;100434.70;1655060;85;21639;-70
2021/07/23 00:30:35;;;;;;;6.07;3.20;;;;;;;15.25;76.91;100433.94;1669751;84;21660;-69
2021/07/23 00:33:01;;;;;;;5.40;3.50;;;;;;;15.25;76.91;100433.94;1666259;85;21582;-70
2021/07/23 00:35:28;;;;;;;5.93;3.27;;;;;;;15.18;77.82;100434.85;1673283;84;21986;-70
2021/07/23 00:37:57;;;;;;;5.53;3.07;;;;;;;15.18;77.82;100434.85;1670018;84;21610;-70
2021/07/23 00:40:24;;;;;;;7.07;3.47;;;;;;;15.12;78.46;100436.55;1667140;84;21523;-69
2021/07/23 00:42:52;;;;;;;6.03;3.20;;;;;;;15.12;78.46;100436.55;1659239;84;22036;-70
2021/07/23 00:45:19;;;;;;;5.93;3.30;;;;;;;15.10;78.42;100438.72;1675793;83;21657;-69
2021/07/23 00:47:55;;;;;;;6.17;3.67;;;;;;;15.06;78.57;100435.81;1656355;85;21517;-70
2021/07/23 00:50:22;;;;;;;6.40;3.60;;;;;;;15.05;78.68;100438.27;1668666;84;21427;-69
2021/07/23 00:52:49;;;;;;;5.43;3.07;;;;;;;15.01;78.68;100431.31;1644881;85;21484;-70
2021/07/23 00:55:17;;;;;;;7.53;3.50;;;;;;;15.01;78.63;100438.59;1658078;85;21869;-68
2021/07/23 00:57:45;;;;;;;8.80;4.03;;;;;;;14.95;78.70;100439.19;1658317;84;21425;-69
2021/07/23 01:00:15;;;;;;;11.37;3.77;;;;;;;14.87;78.89;100434.47;1660478;85;22061;-69
2021/07/23 01:02:58;;;;;;;7.93;3.47;;;;;;;14.86;79.08;100430.71;1655630;84;21407;-69
2021/07/23 01:05:26;;;;;;;8.53;3.63;;;;;;;14.83;79.23;100435.31;1690144;84;21346;-72
2021/07/23 01:07:53;;;;;;;9.57;3.67;;;;;;;14.80;79.38;100439.92;1675412;84;21791;-72
2021/07/23 01:10:20;;;;;;;10.73;3.40;;;;;;;14.73;79.63;100434.34;1670494;84;21380;-70
2021/07/23 01:12:55;;;;;;;10.33;3.60;;;;;;;14.66;79.88;100439.83;1666293;85;21540;-71
2021/07/23 01:15:22;;;;;;;8.30;3.57;;;;;;;14.60;80.12;100439.63;1673835;85;21334;-72
2021/07/23 01:17:49;;;;;;;8.97;3.17;;;;;;;14.53;80.32;100442.66;1666597;85;21351;-71
2021/07/23 01:20:23;;;;;;;10.90;3.77;;;;;;;14.49;80.40;100437.02;1669855;84;21386;-70
2021/07/23 01:22:54;;;;;;;8.53;3.30;;;;;;;14.45;80.46;100436.55;1642202;85;21353;-72
2021/07/23 01:25:22;;;;;;;9.10;3.70;;;;;;;14.41;80.53;100441.69;1672543;84;21811;-72
2021/07/23 01:27:50;;;;;;;7.13;3.20;;;;;;;14.38;80.62;100438.23;1662627;85;21103;-71
2021/07/23 01:30:24;;;;;;;9.53;3.77;;;;;;;14.35;80.71;100439.34;1664666;84;21315;-71
2021/07/23 01:32:52;;;;;;;11.23;3.80;;;;;;;14.31;80.70;100439.91;1662424;85;21375;-71
2021/07/23 01:35:21;;;;;;;10.87;3.73;;;;;;;14.29;80.61;100439.38;1662589;84;21225;-72
2021/07/23 01:37:49;;;;;;;7.33;3.60;;;;;;;14.29;80.65;100438.59;1679247;84;21391;-72
2021/07/23 01:40:18;;;;;;;9.57;3.47;;;;;;;14.24;80.81;100434.05;1658719;84;21332;-73
2021/07/23 01:42:44;;;;;;;7.00;3.40;;;;;;;14.20;81.02;100439.73;1663279;84;21838;-73
2021/07/23 01:45:12;;;;;;;7.97;3.80;;;;;;;14.17;81.29;100438.95;1645449;85;21384;-72
2021/07/23 01:47:39;;;;;;;8.83;4.00;;;;;;;14.15;81.46;100443.83;1660199;85;21272;-73
2021/07/23 01:50:08;;;;;;;10.27;4.23;;;;;;;14.12;81.60;100441.71;1675603;84;21290;-71
2021/07/23 01:52:35;;;;;;;7.70;3.23;;;;;;;14.12;81.65;100442.25;1667706;85;21288;-72
2021/07/23 01:55:05;;;;;;;8.87;3.47;;;;;;;14.12;81.89;100439.57;1667120;84;21335;-72
2021/07/23 01:57:34;;;;;;;8.60;3.90;;;;;;;14.13;82.23;100438.48;1663346;85;21391;-72
2021/07/23 02:00:05;;;;;;;7.67;3.43;;;;;;;14.14;82.54;100442.20;1672026;85;21208;-72
2021/07/23 02:02:35;;;;;;;9.80;4.10;;;;;;;;;;1666072;85;21185;-72
2021/07/23 02:05:05;;;;;;;10.07;3.87;;;;;;;14.19;83.07;100441.38;1669105;84;21306;-70
2021/07/23 02:07:32;;;;;;;5.17;3.03;;;;;;;14.22;83.28;100440.27;1673542;84;21425;-72
2021/07/23 02:09:58;;;;;;;6.63;3.30;;;;;;;14.25;83.44;100441.05;1642712;85;21342;-71
2021/07/23 02:12:26;;;;;;;5.83;3.43;;;;;;;14.29;83.56;100439.93;1669668;85;22706;-72
2021/07/23 02:15:07;;;;;;;7.47;3.20;;;;;;;14.30;83.61;100446.34;1670388;85;21156;-69
2021/07/23 02:17:35;;;;;;;6.60;3.07;;;;;;;14.29;83.64;100442.07;1649883;84;21321;-70
2021/07/23 02:20:06;;;;;;;8.40;3.23;;;;;;;14.23;83.81;100443.20;1666397;85;21336;-72
2021/07/23 02:22:37;;;;;;;8.33;3.43;;;;;;;14.17;84.07;100444.33;1655860;85;21229;-72
2021/07/23 02:25:06;;;;;;;6.33;2.90;;;;;;;14.12;84.42;100452.45;1667132;84;21402;-69
2021/07/23 02:27:36;;;;;;;5.33;2.70;;;;;;;14.13;84.66;100450.56;1669155;85;21216;-70
2021/07/23 02:30:04;;;;;;;6.27;2.60;;;;;;;14.14;84.75;100450.27;1646220;85;21263;-72
2021/07/23 02:32:33;;;;;;;6.40;3.00;;;;;;;14.14;84.72;100450.27;1669213;85;21245;-71
2021/07/23 02:34:59;;;;;;;4.30;2.60;;;;;;;14.14;84.79;100447.58;1671216;84;21348;-71
2021/07/23 02:37:27;;;;;;;7.13;2.87;;;;;;;14.18;84.84;100448.64;1665979;84;21328;-71
2021/07/23 02:39:56;;;;;;;4.53;2.67;;;;;;;14.21;84.78;100439.19;1666150;84;21251;-72
2021/07/23 02:42:24;;;;;;;5.87;2.70;;;;;;;14.23;84.75;100445.89;1664920;85;21371;-72
2021/07/23 02:44:51;;;;;;;5.60;2.73;;;;;;;14.26;84.65;100448.01;1664749;85;21262;-70
2021/07/23 02:47:19;;;;;;;5.40;2.50;;;;;;;14.28;84.58;100445.85;1670825;85;21411;-71
2021/07/23 02:49:45;;;;;;;5.10;2.77;;;;;;;14.29;84.61;100442.07;1675760;84;21246;-70
2021/07/23 02:52:12;;;;;;;6.40;2.97;;;;;;;14.31;84.53;100445.80;1670877;84;21529;-71
2021/07/23 02:54:41;;;;;;;6.53;3.23;;;;;;;14.33;84.48;100448.22;1659980;85;21234;-70
2021/07/23 02:57:08;;;;;;;6.53;2.80;;;;;;;14.35;84.41;100443.38;1670842;85;21268;-70
2021/07/23 02:59:36;;;;;;;5.97;3.10;;;;;;;14.39;84.38;100447.09;1666448;85;21735;-69
2021/07/23 03:02:03;;;;;;;5.03;2.80;;;;;;;14.43;84.41;100448.11;1645482;85;21678;-72
2021/07/23 03:04:31;;;;;;;6.97;3.37;;;;;;;14.50;84.45;100444.53;1675651;84;21363;-71
2021/07/23 03:06:59;;;;;;;4.73;2.90;;;;;;;14.58;84.50;100445.81;1671298;84;21263;-72
2021/07/23 03:09:27;;;;;;;6.63;2.80;;;;;;;14.65;84.50;100449.78;1658786;85;21393;-72
2021/07/23 03:11:55;;;;;;;8.13;3.03;;;;;;;14.72;84.44;100440.82;1654287;85;21801;-71
2021/07/23 03:14:22;;;;;;;6.27;3.27;;;;;;;14.81;84.48;100437.48;1660810;85;21412;-71
2021/07/23 03:16:58;;;;;;;7.90;3.10;;;;;;;14.88;84.43;100437.41;1661606;85;21369;-72
2021/07/23 03:19:25;;;;;;;8.30;3.47;;;;;;;15.06;84.49;100431.78;1667648;84;21472;-71
2021/07/23 03:21:54;;;;;;;6.13;3.00;;;;;;;15.06;84.49;100431.78;1670017;85;21428;-71
2021/07/23 03:24:23;;;;;;;5.77;3.17;;;;;;;15.14;84.03;100431.70;1666575;84;21480;-71
2021/07/23 03:26:50;;;;;;;5.77;3.50;;;;;;;15.25;83.95;100432.59;1656743;85;21456;-71
2021/07/23 03:29:18;;;;;;;6.20;3.47;;;;;;;15.32;83.77;100425.50;1662768;84;21525;-72
2021/07/23 03:31:46;;;;;;;6.23;3.50;;;;;;;15.42;83.56;100430.73;1665903;85;21883;-71
2021/07/23 03:34:15;;;;;;;7.63;3.53;;;;;;;15.56;83.17;100429.44;1670994;84;21710;-71
2021/07/23 03:36:48;;;;;;;7.73;3.20;;;;;;;15.67;82.79;100430.13;1667106;84;21481;-70
2021/07/23 03:39:16;;;;;;;6.77;3.40;;;;;;;15.79;82.28;100427.75;1660699;85;21792;-71
2021/07/23 03:41:44;;;;;;;7.23;3.30;;;;;;;15.88;81.30;100423.84;1662834;85;21555;-71
2021/07/23 03:44:12;;;;;;;7.10;3.27;;;;;;;16.01;81.14;100431.16;1664140;84;21626;-70
2021/07/23 03:46:40;;;;;;;7.67;3.10;;;;;;;16.12;80.52;100431.25;1649135;85;21713;-71
2021/07/23 03:49:07;;;;;;;8.43;3.40;;;;;;;16.27;79.42;100436.90;1669455;85;21785;-71
2021/07/23 03:51:38;;;;;;;6.17;3.20;;;;;;;16.37;78.13;100438.61;1664997;84;21732;-71
2021/07/23 03:54:05;;;;;;;6.63;3.33;;;;;;;16.45;77.04;100429.81;1633731;84;22147;-71
2021/07/23 03:56:32;;;;;;;7.07;3.10;;;;;;;16.50;76.03;100437.02;1671927;84;21768;-72
2021/07/23 03:58:59;;;;;;;5.30;3.17;;;;;;;16.56;75.69;100435.27;1669068;84;21784;-71
2021/07/23 04:01:40;;;;;;;5.90;2.70;;;;;;;16.76;74.76;100436.80;1665536;84;22254;-71
2021/07/23 04:04:07;;;;;;;6.10;3.27;;;;;;;16.81;74.30;100440.75;1664278;85;21080;-71
2021/07/23 04:06:35;;;;;;;5.50;3.03;;;;;;;16.81;74.30;100440.75;1673772;84;21821;-71
2021/07/23 04:09:03;;;;;;;6.37;3.03;;;;;;;16.86;73.12;100436.58;1670435;85;21791;-71
2021/07/23 04:11:37;;;;;;;4.73;2.70;;;;;;;16.93;72.54;100438.87;1644538;85;21782;-71
2021/07/23 04:14:02;;;;;;;5.83;3.27;;;;;;;16.95;71.60;100435.89;1668080;85;22211;-70
2021/07/23 04:16:29;;;;;;;7.33;3.10;;;;;;;16.99;71.49;100436.31;1670577;84;21486;-70
2021/07/23 04:18:57;;;;;;;5.70;2.90;;;;;;;17.14;70.65;100435.72;1676899;84;21657;-71
2021/07/23 04:21:30;;;;;;;7.77;3.17;;;;;;;17.14;70.65;100435.72;1666115;84;21112;-70
2021/07/23 04:23:57;;;;;;;6.30;3.00;;;;;;;17.22;70.40;100435.81;1650804;85;21092;-71
2021/07/23 04:26:23;;;;;;;6.97;3.00;;;;;;;17.30;69.71;100433.73;1669527;84;21031;-70
2021/07/23 04:28:50;;;;;;;6.13;3.00;;;;;;;17.39;68.96;100428.97;1672692;84;21469;-70
2021/07/23 04:31:18;;;;;;;5.60;2.87;;;;;;;17.46;68.54;100430.69;1669132;84;21456;-69
2021/07/23 04:33:59;;;;;;;6.97;3.40;;;;;;;17.54;68.25;100435.38;1667178;85;21608;-70
2021/07/23 04:36:38;;;;;;;5.90;3.30;;;;;;;17.59;67.80;100430.63;1671616;85;21046;-70
2021/07/23 04:39:12;;;;;;;5.90;2.93;;;;;;;17.67;67.74;100427.76;1657800;84;21578;-70
2021/07/23 04:41:41;;;;;;;8.13;3.27;;;;;;;17.75;67.22;100431.61;1667843;84;21019;-70
2021/07/23 04:44:08;;;;;;;6.00;3.00;;;;;;;17.79;66.95;100427.22;1669641;84;21305;-70
2021/07/23 04:46:36;;;;;;;5.37;3.17;;;;;;;17.87;67.10;100430.53;1668812;84;21662;-69
2021/07/23 04:49:05;;;;;;;8.07;3.20;;;;;;;17.95;66.85;100428.42;1663057;85;21061;-71
2021/07/23 04:51:36;;;;;;;7.55;3.30;;;;;;;18.03;66.83;100424.17;1672342;84;21166;-71
2021/07/23 04:54:22;;;;;;;7.13;3.30;;;;;;;18.13;66.56;100427.16;1672482;85;20932;-71
2021/07/23 04:57:12;;;;;;;8.47;3.43;;;;;;;18.19;66.01;100425.92;1687849;84;21486;-73
2021/07/23 04:59:37;;;;;;;7.53;3.40;;;;;;;18.28;65.95;100425.41;1654329;84;21145;-72
2021/07/23 05:02:03;;;;;;;5.83;3.03;;;;;;;18.36;65.92;100423.84;1666030;84;21415;-71
2021/07/23 05:04:31;;;;;;;7.80;3.40;;;;;;;18.48;65.66;100421.35;1663798;84;21545;-68
2021/07/23 05:06:59;;;;;;;8.07;3.30;;;;;;;18.58;65.13;100410.80;1662247;85;20959;-71
2021/07/23 05:09:26;;;;;;;6.53;2.97;;;;;;;18.70;64.87;100419.12;1675114;84;21976;-69
2021/07/23 05:11:54;;;;;;;9.03;3.50;;;;;;;18.82;64.56;100422.05;1669927;84;21121;-70
2021/07/23 05:14:25;;;;;;;6.87;3.37;;;;;;;18.93;64.16;100423.89;1669134;85;21507;-70
2021/07/23 05:16:52;;;;;;;7.87;3.40;;;;;;;19.01;63.50;100419.59;1665166;85;21059;-70
2021/07/23 05:19:20;;;;;;;6.73;2.83;;;;;;;19.02;63.33;100419.83;1670424;85;21026;-70
2021/07/23 05:21:47;;;;;;;7.33;3.27;;;;;;;19.09;63.14;100422.88;1658959;84;21200;-70
2021/07/23 05:24:14;;;;;;;7.60;3.20;;;;;;;19.14;63.27;100422.15;1671047;84;20952;-71
2021/07/23 05:26:41;;;;;;;7.73;3.70;;;;;;;19.23;63.08;100422.17;1668290;84;20971;-71
2021/07/23 05:29:09;;;;;;;8.60;2.90;;;;;;;19.33;63.39;100427.27;1670994;85;21725;-71
2021/07/23 05:31:39;;;;;;;7.33;3.50;;;;;;;19.43;63.15;100418.81;1670688;85;21085;-71
2021/07/23 05:34:04;;;;;;;5.67;3.30;;;;;;;19.57;63.13;100425.97;1668858;85;21085;-72
2021/07/23 05:36:31;;;;;;;9.07;3.17;;;;;;;19.67;62.65;100422.39;1668974;85;21635;-71
2021/07/23 05:38:58;;;;;;;8.70;3.37;;;;;;;19.80;61.94;100422.55;1671676;85;21163;-70
2021/07/23 05:41:26;;;;;;;6.70;3.00;;;;;;;19.91;61.55;100423.25;1679156;84;21090;-70
2021/07/23 05:43:53;;;;;;;5.73;3.30;;;;;;;20.01;60.75;100420.75;1666066;85;21082;-71
2021/07/23 05:46:19;;;;;;;7.13;3.00;;;;;;;20.06;60.58;100425.98;1665801;85;21566;-70
2021/07/23 05:48:46;;;;;;;6.10;2.87;;;;;;;20.10;60.61;100426.95;1672597;85;21560;-72
2021/07/23 05:51:12;;;;;;;8.63;3.37;;;;;;;20.20;60.93;100424.98;1671954;84;21200;-71
2021/07/23 05:53:39;;;;;;;9.13;3.40;;;;;;;20.30;60.53;100422.73;1668426;85;20986;-71
2021/07/23 05:56:07;;;;;;;6.00;2.70;;;;;;;20.36;59.28;100426.03;1665525;84;21089;-71
2021/07/23 05:58:35;;;;;;;8.60;3.40;;;;;;;20.40;58.83;100424.28;1670872;85;21126;-71
2021/07/23 06:01:05;;;;;;;6.70;3.00;;;;;;;20.45;58.96;100424.65;1671451;84;21547;-72
2021/07/23 06:03:32;;;;;;;9.80;3.83;;;;;;;20.50;58.59;100422.56;1669940;84;21131;-71
2021/07/23 06:06:03;;;;;;;5.83;3.07;;;;;;;20.59;58.28;100431.45;1648724;85;21022;-71
2021/07/23 06:08:30;;;;;;;10.33;3.20;;;;;;;20.72;58.31;100428.84;1675253;84;21781;-71
2021/07/23 06:11:06;;;;;;;8.00;3.20;;;;;;;20.83;57.47;100433.58;1672952;84;21156;-69
2021/07/23 06:13:37;;;;;;;6.93;3.10;;;;;;;20.91;56.73;100431.13;1666087;84;21137;-70
2021/07/23 06:16:05;;;;;;;8.53;3.20;;;;;;;21.02;56.03;100428.25;1668440;84;21107;-71
2021/07/23 06:18:33;;;;;;;13.27;3.90;;;;;;;21.12;55.68;100427.86;1674913;84;21244;-69
2021/07/23 06:21:00;;;;;;;7.57;3.80;;;;;;;21.20;54.71;100430.30;1668604;85;21073;-71
2021/07/23 06:23:28;;;;;;;11.27;3.80;;;;;;;21.26;53.99;100433.05;1645898;84;21239;-72
2021/07/23 06:25:56;;;;;;;13.40;3.70;;;;;;;21.31;53.95;100431.47;1667950;84;21580;-70
2021/07/23 06:28:23;;;;;;;10.50;3.40;;;;;;;21.38;53.26;100424.17;1669775;85;21552;-71
2021/07/23 06:30:49;;;;;;;12.10;3.60;;;;;;;21.46;53.09;100415.17;1662693;85;21429;-72
2021/07/23 06:33:16;;;;;;;11.50;4.10;;;;;;;21.51;52.72;100421.73;1675457;84;21105;-72
2021/07/23 06:35:43;;;;;;;12.33;3.60;;;;;;;21.59;52.56;100423.59;1666880;84;21604;-73
2021/07/23 06:38:09;;;;;;;6.83;2.80;;;;;;;21.71;52.07;100424.19;1665799;85;21034;-73
2021/07/23 06:40:37;;;;;;;8.30;3.37;;;;;;;21.83;51.09;100420.72;1670802;85;21103;-74
2021/07/23 06:43:04;;;;;;;9.67;3.40;;;;;;;21.94;50.76;100425.95;1671117;84;21546;-72
2021/07/23 06:45:31;;;;;;;10.90;3.73;;;;;;;22.02;50.71;100416.91;1662816;85;21556;-72
2021/07/23 06:47:57;;;;;;;6.00;3.80;;;;;;;22.08;50.11;100414.20;1667063;84;21522;-73
2021/07/23 06:50:24;;;;;;;11.37;3.30;;;;;;;22.14;48.75;100416.13;1671871;85;21026;-72
2021/07/23 06:52:51;;;;;;;7.13;2.73;;;;;;;22.20;48.69;100414.23;1670184;85;21132;-71
2021/07/23 06:55:18;;;;;;;8.20;2.73;;;;;;;22.29;48.37;100413.34;1665849;84;21553;-72
2021/07/23 06:57:44;;;;;;;7.73;2.60;;;;;;;22.38;47.38;100410.75;1668489;84;21538;-71
2021/07/23 07:00:14;;;;;;;7.57;2.70;;;;;;;22.49;47.28;100409.72;1671266;84;21512;-71
2021/07/23 07:02:40;;;;;;;9.73;3.03;;;;;;;22.58;45.55;100409.04;1667401;85;20971;-72
2021/07/23 07:05:09;;;;;;;7.73;2.87;;;;;;;22.65;45.99;100406.53;1669353;84;21117;-71
2021/07/23 07:07:36;;;;;;;7.93;2.70;;;;;;;22.72;45.73;100414.13;1668928;85;21102;-72
2021/07/23 07:10:04;;;;;;;8.70;2.60;;;;;;;22.77;45.21;100410.36;1671098;84;21166;-75
2021/07/23 07:12:31;;;;;;;5.90;2.17;;;;;;;22.80;44.37;100401.52;1665286;84;21083;-78
2021/07/23 07:14:57;;;;;;;5.07;2.00;;;;;;;22.86;44.13;100396.84;1665859;84;21078;-72
2021/07/23 07:17:29;;;;;;;5.50;2.10;;;;;;;22.93;43.82;100403.92;1664448;84;21094;-71
2021/07/23 07:19:52;;;;;;;3.93;1.80;;;;;;;22.97;42.67;100405.39;1667561;84;20981;-73
2021/07/23 07:22:18;;;;;;;5.93;1.93;;;;;;;23.01;42.87;100404.91;1669663;84;21121;-71
2021/07/23 07:24:45;;;;;;;5.20;2.03;;;;;;;23.04;41.69;100407.53;1672219;84;21881;-71
2021/07/23 07:27:13;;;;;;;2.73;1.60;;;;;;;23.02;41.36;100411.16;1667716;85;21086;-72
2021/07/23 07:29:40;;;;;;;4.83;1.63;;;;;;;23.04;41.02;100411.61;1667974;84;21496;-72
2021/07/23 07:32:08;;;;;;;5.17;1.60;;;;;;;23.07;40.37;100406.27;1669546;85;21723;-73
2021/07/23 07:34:38;;;;;;;4.97;1.47;;;;;;;23.13;40.02;100413.06;1670399;84;21059;-72
2021/07/23 07:37:05;;;;;;;4.87;1.50;;;;;;;23.16;40.13;100415.09;1669130;84;22138;-73
2021/07/23 07:39:31;;;;;;;3.83;1.67;;;;;;;23.16;39.62;100405.56;1669499;85;21702;-72
2021/07/23 07:42:00;;;;;;;4.03;1.57;;;;;;;23.18;40.14;100405.99;1670591;85;21086;-72
2021/07/23 07:44:28;;;;;;;4.90;1.60;;;;;;;23.24;40.11;100409.85;1671576;85;21541;-71
2021/07/23 07:46:55;;;;;;;7.37;1.50;;;;;;;23.24;39.75;100408.48;1664400;84;21042;-72
2021/07/23 07:49:22;;;;;;;2.73;1.20;;;;;;;23.26;40.01;100402.89;1660732;85;22054;-72
2021/07/23 07:51:49;;;;;;;3.93;1.30;;;;;;;23.29;39.04;100409.02;1672068;85;21075;-70
2021/07/23 07:54:16;;;;;;;5.03;1.50;;;;;;;23.32;39.04;100412.41;1661026;84;21046;-70
2021/07/23 07:56:44;;;;;;;4.37;1.60;;;;;;;23.38;40.04;100403.43;1669887;84;21149;-72
2021/07/23 07:59:10;;;;;;;5.87;2.73;;;;;;;23.48;39.61;100396.69;1660816;84;21648;-71
2021/07/23 08:01:38;;;;;;;5.30;2.20;;;;;;;23.58;39.40;100410.60;1671424;84;21574;-72
2021/07/23 08:04:04;;;;;;;4.40;1.40;;;;;;;23.65;38.29;100403.97;1671164;84;21066;-73
2021/07/23 08:06:35;;;;;;;3.80;1.43;;;;;;;23.71;37.99;100407.85;1667531;84;21065;-72
2021/07/23 08:09:05;;;;;;;4.47;1.60;;;;;;;23.74;37.35;100408.52;1670462;85;21088;-71
2021/07/23 08:11:29;;;;;;;4.23;1.67;;;;;;;23.77;38.15;100411.33;1666209;84;21051;-72
2021/07/23 08:13:59;;;;;;;4.13;1.60;;;;;;;23.82;38.19;100403.45;1671344;84;21549;-72
2021/07/23 08:16:26;;;;;;;5.57;1.90;;;;;;;23.87;38.27;100414.91;1664829;84;22694;-71
2021/07/23 08:18:53;;;;;;;4.93;1.60;;;;;;;23.95;38.31;100407.69;1662588;85;21086;-73
2021/07/23 08:21:20;;;;;;;6.33;1.93;;;;;;;24.04;38.37;100411.05;1662629;84;21253;-73
2021/07/23 08:23:47;;;;;;;4.17;1.87;;;;;;;24.10;37.32;100412.38;1671420;85;21102;-71
2021/07/23 08:26:14;;;;;;;6.50;2.30;;;;;;;24.14;37.92;100410.31;1670509;84;21531;-70
2021/07/23 08:28:41;;;;;;;5.40;1.83;;;;;;;24.18;39.00;100414.70;1673775;84;21070;-72
2021/07/23 08:31:08;;;;;;;5.20;1.80;;;;;;;24.21;37.39;100399.56;1672183;85;21181;-72
2021/07/23 08:33:34;;;;;;;3.97;1.87;;;;;;;24.25;38.14;100401.25;1659752;84;21035;-73
2021/07/23 08:36:03;;;;;;;3.53;1.77;;;;;;;24.30;38.13;100411.89;1651282;85;21097;-72
2021/07/23 08:38:33;;;;;;;4.17;1.60;;;;;;;24.35;37.25;100404.02;1667765;84;21129;-73
2021/07/23 08:41:00;;;;;;;2.98;1.50;;;;;;;24.31;37.72;100412.09;1668829;84;21043;-72
2021/07/23 08:43:27;;;;;;;2.90;1.40;;;;;;;24.19;37.17;100406.75;1639579;85;21042;-71
2021/07/23 08:45:53;;;;;;;2.80;1.30;;;;;;;24.11;37.22;100411.80;1669743;85;21082;-70
2021/07/23 08:48:20;;;;;;;4.10;1.30;;;;;;;24.14;37.64;100407.00;1715192;82;21060;-71
2021/07/23 08:50:48;;;;;;;4.53;1.10;;;;;;;24.17;36.75;100410.97;1719946;83;21649;-72
2021/07/23 08:53:14;;;;;;;4.10;1.47;;;;;;;24.19;36.39;100401.88;1716609;82;21071;-72
2021/07/23 08:55:41;;;;;;;2.30;1.10;;;;;;;24.22;35.77;100403.87;1719612;83;21059;-71
2021/07/23 08:58:09;;;;;;;3.40;1.20;;;;;;;24.16;36.27;100402.00;1717582;82;21543;-71
2021/07/23 09:00:37;;;;;;;2.47;1.10;;;;;;;24.15;36.02;100405.85;1710263;83;21087;-71
2021/07/23 09:03:08;;;;;;;3.00;1.47;;;;;;;24.16;36.42;100399.84;1713435;83;21124;-71
2021/07/23 09:05:39;;;;;;;3.63;1.30;;;;;;;24.20;35.99;100408.91;1677300;85;21610;-71
2021/07/23 09:08:11;;;;;;;2.80;1.10;;;;;;;24.26;36.28;100402.04;1669332;84;21066;-72
2021/07/23 09:10:38;;;;;;;2.50;1.10;;;;;;;24.34;36.94;100394.23;1655082;86;21078;-71
2021/07/23 09:13:07;;;;;;;2.27;1.00;;;;;;;24.43;36.42;100394.87;1659395;85;21200;-71
2021/07/23 09:15:40;;;;;;;3.30;1.30;;;;;;;24.54;36.32;100393.74;1659438;85;22156;-71
2021/07/23 09:18:20;;;;;;;3.90;1.50;;;;;;;24.67;34.93;100393.06;1655664;85;21130;-70
2021/07/23 09:20:58;;;;;;;3.13;1.30;;;;;;;24.68;35.59;100404.19;1640481;86;21070;-72
2021/07/23 09:23:32;;;;;;;2.57;1.40;;;;;;;24.64;35.87;100399.23;1661985;84;21087;-71
2021/07/23 09:26:12;;;;;;;3.37;1.50;;;;;;;24.67;36.47;100398.52;1657757;86;21581;-70
2021/07/23 09:28:45;;;;;;;3.87;1.45;;;;;;;24.70;36.98;100388.25;1663914;84;21179;-71
2021/07/23 09:31:29;;;;;;;3.50;1.30;;;;;;;24.70;36.98;100388.25;1653310;86;21656;-72
2021/07/23 09:33:55;;;;;;;4.37;1.50;;;;;;;24.77;36.26;100378.84;1658384;86;21123;-70
2021/07/23 09:36:25;;;;;;;5.90;1.80;;;;;;;24.83;35.99;100391.66;1658064;85;21089;-70
2021/07/23 09:39:07;;;;;;;4.12;1.37;;;;;;;24.89;36.28;100380.09;1660134;85;21069;-70
2021/07/23 09:41:34;;;;;;;3.95;1.37;;;;;;;24.98;36.18;100386.14;1661428;86;21521;-74
2021/07/23 09:44:13;;;;;;;4.00;1.60;;;;;;;24.99;36.00;100389.08;1654203;85;21423;-74
2021/07/23 09:46:42;;;;;;;3.13;1.20;;;;;;;25.01;35.19;100378.59;1660761;85;21036;-70
2021/07/23 09:49:29;;;;;;;2.83;1.30;;;;;;;25.04;35.19;100372.41;1650974;85;21094;-72
2021/07/23 09:52:05;;;;;;;5.60;1.47;;;;;;;25.14;35.87;100374.36;1673591;85;21090;-70
2021/07/23 09:54:33;;;;;;;3.23;1.50;;;;;;;25.26;35.32;100367.39;1650398;86;22210;-70
2021/07/23 09:57:03;;;;;;;2.97;1.67;;;;;;;25.34;36.00;100370.49;1661628;85;21019;-70
2021/07/23 10:00:03;;;;;;;3.43;1.40;;;;;;;25.31;34.84;100362.23;1652634;85;21171;-70
2021/07/23 10:02:33;;;;;;;3.30;1.13;;;;;;;25.23;35.27;100364.80;1659173;86;20993;-71
2021/07/23 10:05:07;;;;;;;3.20;1.20;;;;;;;25.18;35.65;100371.94;1655421;85;21138;-71
2021/07/23 10:07:41;;;;;;;3.73;1.50;;;;;;;25.21;36.22;100358.91;1674448;85;21292;-73
2021/07/23 10:10:13;;;;;;;3.07;1.47;;;;;;;25.28;35.49;100358.27;1631032;85;21066;-71
2021/07/23 10:12:42;;;;;;;3.47;1.30;;;;;;;25.34;35.01;100355.45;1667894;85;21094;-70
2021/07/23 10:15:11;;;;;;;3.90;1.30;;;;;;;25.36;35.46;100354.50;1661338;85;21063;-71
2021/07/23 10:17:38;;;;;;;2.70;1.40;;;;;;;25.36;35.24;100350.40;1651936;86;21560;-71
2021/07/23 10:20:07;;;;;;;5.57;1.43;;;;;;;25.44;35.07;100346.66;1658087;85;21651;-72
2021/07/23 10:22:33;;;;;;;3.57;1.70;;;;;;;25.47;35.60;100350.04;1660567;85;21080;-71
2021/07/23 10:25:00;;;;;;;4.57;1.83;;;;;;;25.57;35.28;100349.20;1675116;84;21061;-71
2021/07/23 10:27:28;;;;;;;4.83;1.70;;;;;;;25.61;35.36;100348.13;1653608;86;21024;-72
2021/07/23 10:29:55;;;;;;;3.80;1.47;;;;;;;25.55;35.32;100343.33;1669246;84;20987;-70
2021/07/23 10:32:34;;;;;;;3.40;1.47;;;;;;;25.47;36.49;100355.50;1658716;85;21541;-70
2021/07/23 10:35:19;;;;;;;5.20;1.50;;;;;;;25.47;36.25;100342.41;1644263;85;21111;-72
2021/07/23 10:37:53;;;;;;;5.87;1.73;;;;;;;25.54;35.46;100343.13;1645354;85;21490;-71
2021/07/23 10:40:22;;;;;;;3.50;1.40;;;;;;;25.63;35.12;100351.30;1680794;83;21075;-71
2021/07/23 10:42:49;;;;;;;3.67;1.30;;;;;;;25.65;35.73;100341.35;1673329;84;21043;-70
2021/07/23 10:45:19;;;;;;;3.77;1.70;;;;;;;25.67;35.81;100348.05;1661305;85;21120;-71
2021/07/23 10:47:50;;;;;;;3.77;1.90;;;;;;;25.73;36.41;100334.84;1629779;85;21070;-71
2021/07/23 10:50:31;;;;;;;3.33;1.90;;;;;;;25.82;36.44;100341.47;1650735;85;21124;-71
2021/07/23 10:53:27;;;;;;;3.20;1.60;;;;;;;25.93;35.50;100335.03;1671954;85;21126;-71
2021/07/23 10:55:54;;;;;;;5.63;2.87;;;;;;;25.95;35.34;100338.17;1648369;86;21087;-71
2021/07/23 10:58:26;;;;;;;5.73;2.43;;;;;;;26.03;35.63;100330.07;1635754;85;21144;-70
2021/07/23 11:00:59;;;;;;;4.00;1.50;;;;;;;26.14;35.47;100335.15;1668187;84;20966;-70
2021/07/23 11:03:43;;;;;;;4.70;2.00;;;;;;;26.11;34.30;100327.67;1678248;85;21064;-70
2021/07/23 11:06:26;;;;;;;5.50;3.10;;;;;;;26.03;34.61;100325.97;1658596;86;21047;-69
2021/07/23 11:09:02;;;;;;;6.08;2.08;;;;;;;26.11;35.44;100329.04;1673262;84;25029;-72
2021/07/23 11:11:27;;;;;;;4.03;1.73;;;;;;;26.23;34.98;100321.21;1650888;85;21633;-71
2021/07/23 11:14:11;;;;;;;5.90;1.63;;;;;;;26.20;34.64;100326.25;1670661;84;21082;-72
2021/07/23 11:16:37;;;;;;;3.10;1.60;;;;;;;26.26;34.23;100318.52;1639247;86;21072;-70
2021/07/23 11:19:04;;;;;;;3.17;1.50;;;;;;;26.40;35.13;100315.98;1671205;84;20999;-70
2021/07/23 11:21:36;;;;;;;3.47;1.50;;;;;;;26.41;33.66;100314.81;1657405;85;21034;-71
2021/07/23 11:24:11;;;;;;;3.93;1.33;;;;;;;26.37;34.16;100313.98;1653248;85;21115;-69
2021/07/23 11:26:42;;;;;;;2.77;1.40;;;;;;;26.39;34.59;100317.70;1642955;86;21065;-70
2021/07/23 11:29:08;;;;;;;3.47;1.40;;;;;;;26.49;34.62;100314.38;1659812;85;21063;-70
2021/07/23 11:31:39;;;;;;;3.13;1.50;;;;;;;26.62;34.94;100306.14;1648269;85;22223;-71
2021/07/23 11:34:26;;;;;;;4.23;1.50;;;;;;;26.66;34.33;100308.92;1660238;85;20988;-71